sensor_id;sensor_type;location;lat;lon;timestamp;pressure;altitude;pressure_sealevel;temperature;humidity
10988;BME280;5547;42.672;23.230;2022-08-19T00:00:07;93255.72;;;18.65;64.13
10988;BME280;5547;42.672;23.230;2022-08-19T00:02:33;93258.81;;;18.48;63.79
10988;BME280;5547;42.672;23.230;2022-08-19T00:04:59;93231.03;;;18.33;63.97
10988;BME280;5547;42.672;23.230;2022-08-19T00:07:25;93183.69;;;17.84;65.26
10988;BME280;5547;42.672;23.230;2022-08-19T00:09:50;93262.16;;;18.25;66.09
10988;BME280;5547;42.672;23.230;2022-08-19T00:12:15;93249.38;;;18.11;65.65
10988;BME280;5547;42.672;23.230;2022-08-19T00:14:41;93268.81;;;18.05;65.98
10988;BME280;5547;42.672;23.230;2022-08-19T00:17:08;93246.28;;;17.75;66.05
10988;BME280;5547;42.672;23.230;2022-08-19T00:19:34;93233.28;;;17.74;65.86
10988;BME280;5547;42.672;23.230;2022-08-19T00:22:00;93274.53;;;17.98;65.03
10988;BME280;5547;42.672;23.230;2022-08-19T00:24:27;93247.34;;;17.78;65.80
10988;BME280;5547;42.672;23.230;2022-08-19T00:26:55;93273.81;;;17.89;66.32
10988;BME280;5547;42.672;23.230;2022-08-19T00:29:22;93270.94;;;17.74;66.05
10988;BME280;5547;42.672;23.230;2022-08-19T00:31:50;93272.00;;;17.58;65.63
10988;BME280;5547;42.672;23.230;2022-08-19T00:34:18;93231.56;;;17.43;68.02
10988;BME280;5547;42.672;23.230;2022-08-19T00:36:44;93226.91;;;17.34;68.29
10988;BME280;5547;42.672;23.230;2022-08-19T00:39:10;93270.66;;;17.62;68.83
10988;BME280;5547;42.672;23.230;2022-08-19T00:41:37;93265.44;;;17.59;66.93
10988;BME280;5547;42.672;23.230;2022-08-19T00:46:30;93261.72;;;17.56;66.47
10988;BME280;5547;42.672;23.230;2022-08-19T00:48:57;93233.94;;;17.41;66.96
10988;BME280;5547;42.672;23.230;2022-08-19T00:51:25;93263.50;;;17.59;65.69
10988;BME280;5547;42.672;23.230;2022-08-19T00:53:52;93259.03;;;17.56;65.58
10988;BME280;5547;42.672;23.230;2022-08-19T00:56:19;93257.69;;;17.52;65.83
10988;BME280;5547;42.672;23.230;2022-08-19T00:58:45;93231.25;;;17.22;66.83
10988;BME280;5547;42.672;23.230;2022-08-19T01:01:10;93257.53;;;17.37;66.77
10988;BME280;5547;42.672;23.230;2022-08-19T01:03:36;93258.00;;;17.45;67.36
10988;BME280;5547;42.672;23.230;2022-08-19T01:06:01;93256.19;;;17.51;67.85
10988;BME280;5547;42.672;23.230;2022-08-19T01:08:27;93197.53;;;17.03;67.58
10988;BME280;5547;42.672;23.230;2022-08-19T01:10:56;93257.84;;;17.30;68.23
10988;BME280;5547;42.672;23.230;2022-08-19T01:13:25;93263.22;;;17.30;67.90
10988;BME280;5547;42.672;23.230;2022-08-19T01:16:02;93235.59;;;17.11;67.67
10988;BME280;5547;42.672;23.230;2022-08-19T01:18:29;93205.44;;;16.97;67.92
10988;BME280;5547;42.672;23.230;2022-08-19T01:20:58;93253.19;;;17.30;67.23
10988;BME280;5547;42.672;23.230;2022-08-19T01:23:25;93250.81;;;17.32;67.55
10988;BME280;5547;42.672;23.230;2022-08-19T01:26:09;93225.44;;;17.15;68.30
10988;BME280;5547;42.672;23.230;2022-08-19T01:28:35;93223.50;;;17.06;69.15
10988;BME280;5547;42.672;23.230;2022-08-19T01:31:01;93247.38;;;17.22;69.24
10988;BME280;5547;42.672;23.230;2022-08-19T01:33:27;93248.44;;;17.16;68.54
10988;BME280;5547;42.672;23.230;2022-08-19T01:35:52;93234.38;;;17.02;69.39
10988;BME280;5547;42.672;23.230;2022-08-19T01:38:26;93244.41;;;17.11;68.34
10988;BME280;5547;42.672;23.230;2022-08-19T01:40:52;93252.75;;;17.04;68.84
10988;BME280;5547;42.672;23.230;2022-08-19T01:43:18;93260.94;;;16.91;70.94
10988;BME280;5547;42.672;23.230;2022-08-19T01:45:44;93247.63;;;16.78;69.97
10988;BME280;5547;42.672;23.230;2022-08-19T01:48:12;93205.50;;;16.57;69.99
10988;BME280;5547;42.672;23.230;2022-08-19T01:50:37;93250.16;;;16.73;68.68
10988;BME280;5547;42.672;23.230;2022-08-19T01:53:05;93235.47;;;16.55;67.51
10988;BME280;5547;42.672;23.230;2022-08-19T01:55:33;93180.50;;;16.20;69.83
10988;BME280;5547;42.672;23.230;2022-08-19T01:58:01;93229.19;;;16.49;70.18
10988;BME280;5547;42.672;23.230;2022-08-19T02:00:30;93244.13;;;16.50;70.26
10988;BME280;5547;42.672;23.230;2022-08-19T02:02:56;93258.03;;;16.67;71.07
10988;BME280;5547;42.672;23.230;2022-08-19T02:05:22;93260.97;;;16.51;72.22
10988;BME280;5547;42.672;23.230;2022-08-19T02:07:48;93260.84;;;16.54;72.00
10988;BME280;5547;42.672;23.230;2022-08-19T02:10:18;93254.16;;;16.59;71.13
10988;BME280;5547;42.672;23.230;2022-08-19T02:12:44;93249.06;;;16.61;72.65
10988;BME280;5547;42.672;23.230;2022-08-19T02:15:11;93257.84;;;16.43;72.79
10988;BME280;5547;42.672;23.230;2022-08-19T02:17:36;93236.69;;;16.14;72.45
10988;BME280;5547;42.672;23.230;2022-08-19T02:20:03;93207.38;;;15.88;72.49
10988;BME280;5547;42.672;23.230;2022-08-19T02:22:28;93255.81;;;16.25;72.54
10988;BME280;5547;42.672;23.230;2022-08-19T02:24:54;93254.72;;;16.13;72.39
10988;BME280;5547;42.672;23.230;2022-08-19T02:27:22;93255.91;;;16.12;71.63
10988;BME280;5547;42.672;23.230;2022-08-19T02:29:48;93208.22;;;15.76;72.89
10988;BME280;5547;42.672;23.230;2022-08-19T02:32:15;93255.31;;;16.08;72.16
10988;BME280;5547;42.672;23.230;2022-08-19T02:34:41;93252.63;;;16.08;72.03
10988;BME280;5547;42.672;23.230;2022-08-19T02:37:07;93255.66;;;16.29;70.87
10988;BME280;5547;42.672;23.230;2022-08-19T02:39:55;93248.72;;;16.41;70.55
10988;BME280;5547;42.672;23.230;2022-08-19T02:42:21;93251.38;;;16.31;70.71
10988;BME280;5547;42.672;23.230;2022-08-19T02:44:46;93246.09;;;16.18;70.92
10988;BME280;5547;42.672;23.230;2022-08-19T02:47:12;93257.91;;;16.30;70.40
10988;BME280;5547;42.672;23.230;2022-08-19T02:49:39;93212.97;;;16.12;71.17
10988;BME280;5547;42.672;23.230;2022-08-19T02:52:05;93249.56;;;16.28;71.82
10988;BME280;5547;42.672;23.230;2022-08-19T02:54:30;93260.56;;;16.21;70.98
10988;BME280;5547;42.672;23.230;2022-08-19T02:56:55;93251.88;;;16.08;72.45
10988;BME280;5547;42.672;23.230;2022-08-19T02:59:21;93267.31;;;16.26;73.29
10988;BME280;5547;42.672;23.230;2022-08-19T03:01:46;93234.34;;;15.94;74.01
10988;BME280;5547;42.672;23.230;2022-08-19T03:04:14;93270.38;;;16.15;72.95
10988;BME280;5547;42.672;23.230;2022-08-19T03:06:45;93249.53;;;15.88;74.04
10988;BME280;5547;42.672;23.230;2022-08-19T03:09:12;93264.63;;;15.94;74.79
10988;BME280;5547;42.672;23.230;2022-08-19T03:11:38;93270.75;;;15.95;75.85
10988;BME280;5547;42.672;23.230;2022-08-19T03:14:06;93222.94;;;15.49;75.61
10988;BME280;5547;42.672;23.230;2022-08-19T03:16:34;93254.91;;;15.66;75.77
10988;BME280;5547;42.672;23.230;2022-08-19T03:19:01;93264.66;;;15.72;76.95
10988;BME280;5547;42.672;23.230;2022-08-19T03:21:31;93260.50;;;15.59;76.54
10988;BME280;5547;42.672;23.230;2022-08-19T03:23:59;93264.38;;;15.58;77.86
10988;BME280;5547;42.672;23.230;2022-08-19T03:26:25;93250.66;;;15.33;77.36
10988;BME280;5547;42.672;23.230;2022-08-19T03:28:51;93241.06;;;15.23;79.04
10988;BME280;5547;42.672;23.230;2022-08-19T03:31:21;93268.84;;;15.39;78.19
10988;BME280;5547;42.672;23.230;2022-08-19T03:33:48;93263.88;;;15.28;78.78
10988;BME280;5547;42.672;23.230;2022-08-19T03:36:25;93270.41;;;15.27;77.11
10988;BME280;5547;42.672;23.230;2022-08-19T03:38:54;93259.25;;;15.28;77.76
10988;BME280;5547;42.672;23.230;2022-08-19T03:41:23;93266.88;;;15.30;76.96
10988;BME280;5547;42.672;23.230;2022-08-19T03:43:49;93195.34;;;14.83;77.37
10988;BME280;5547;42.672;23.230;2022-08-19T03:46:18;93265.25;;;15.32;77.09
10988;BME280;5547;42.672;23.230;2022-08-19T03:48:47;93275.09;;;15.36;77.22
10988;BME280;5547;42.672;23.230;2022-08-19T03:51:19;93281.09;;;15.40;77.68
10988;BME280;5547;42.672;23.230;2022-08-19T03:53:46;93278.91;;;15.47;77.74
10988;BME280;5547;42.672;23.230;2022-08-19T03:56:12;93281.88;;;15.49;77.17
10988;BME280;5547;42.672;23.230;2022-08-19T03:58:39;93290.69;;;15.50;76.86
10988;BME280;5547;42.672;23.230;2022-08-19T04:01:10;93259.00;;;15.36;77.03
10988;BME280;5547;42.672;23.230;2022-08-19T04:03:37;93297.44;;;15.77;78.39
10988;BME280;5547;42.672;23.230;2022-08-19T04:06:22;93296.63;;;15.89;78.46
10988;BME280;5547;42.672;23.230;2022-08-19T04:08:51;93296.56;;;16.02;75.25
10988;BME280;5547;42.672;23.230;2022-08-19T04:11:23;93297.50;;;16.17;75.94
10988;BME280;5547;42.672;23.230;2022-08-19T04:13:50;93290.88;;;16.31;73.30
10988;BME280;5547;42.672;23.230;2022-08-19T04:16:18;93296.47;;;16.46;74.15
10988;BME280;5547;42.672;23.230;2022-08-19T04:18:44;93299.19;;;16.55;73.56
10988;BME280;5547;42.672;23.230;2022-08-19T04:21:19;93273.31;;;16.39;73.54
10988;BME280;5547;42.672;23.230;2022-08-19T04:23:45;93239.44;;;16.32;72.94
10988;BME280;5547;42.672;23.230;2022-08-19T04:26:20;93289.09;;;16.77;73.47
10988;BME280;5547;42.672;23.230;2022-08-19T04:28:46;93244.00;;;16.63;72.60
10988;BME280;5547;42.672;23.230;2022-08-19T04:31:17;93265.56;;;16.91;72.91
10988;BME280;5547;42.672;23.230;2022-08-19T04:33:43;93254.41;;;17.01;73.66
10988;BME280;5547;42.672;23.230;2022-08-19T04:36:16;93300.72;;;17.52;73.00
10988;BME280;5547;42.672;23.230;2022-08-19T04:38:42;93301.28;;;17.74;71.62
10988;BME280;5547;42.672;23.230;2022-08-19T04:41:08;93295.44;;;17.94;69.46
10988;BME280;5547;42.672;23.230;2022-08-19T04:43:51;93273.59;;;18.01;69.77
10988;BME280;5547;42.672;23.230;2022-08-19T04:46:17;93301.44;;;18.41;70.16
10988;BME280;5547;42.672;23.230;2022-08-19T04:48:43;93281.25;;;18.45;68.66
10988;BME280;5547;42.672;23.230;2022-08-19T04:51:11;93286.38;;;18.67;64.01
10988;BME280;5547;42.672;23.230;2022-08-19T04:53:39;93284.81;;;18.85;62.54
10988;BME280;5547;42.672;23.230;2022-08-19T04:56:14;93307.31;;;19.30;61.75
10988;BME280;5547;42.672;23.230;2022-08-19T04:58:42;93302.31;;;19.38;63.11
10988;BME280;5547;42.672;23.230;2022-08-19T05:01:11;93308.41;;;19.62;60.38
10988;BME280;5547;42.672;23.230;2022-08-19T05:03:37;93262.72;;;19.44;58.95
10988;BME280;5547;42.672;23.230;2022-08-19T05:06:09;93310.81;;;19.99;58.74
10988;BME280;5547;42.672;23.230;2022-08-19T05:08:37;93299.19;;;19.93;58.33
10988;BME280;5547;42.672;23.230;2022-08-19T05:11:17;93308.22;;;20.20;58.10
10988;BME280;5547;42.672;23.230;2022-08-19T05:13:44;93315.28;;;20.32;57.82
10988;BME280;5547;42.672;23.230;2022-08-19T05:16:11;93314.53;;;20.46;58.26
10988;BME280;5547;42.672;23.230;2022-08-19T05:18:37;93319.97;;;20.61;59.31
10988;BME280;5547;42.672;23.230;2022-08-19T05:21:22;93317.03;;;20.80;58.61
10988;BME280;5547;42.672;23.230;2022-08-19T05:24:07;93236.47;;;20.48;58.68
10988;BME280;5547;42.672;23.230;2022-08-19T05:26:34;93309.84;;;21.32;58.67
10988;BME280;5547;42.672;23.230;2022-08-19T05:28:59;93312.69;;;21.23;61.06
10988;BME280;5547;42.672;23.230;2022-08-19T05:31:25;93307.66;;;21.51;58.31
10988;BME280;5547;42.672;23.230;2022-08-19T05:33:50;93308.25;;;21.61;56.35
10988;BME280;5547;42.672;23.230;2022-08-19T05:36:15;93311.41;;;21.80;56.82
10988;BME280;5547;42.672;23.230;2022-08-19T05:38:41;93314.50;;;21.93;56.70
10988;BME280;5547;42.672;23.230;2022-08-19T05:41:11;93301.16;;;21.90;57.37
10988;BME280;5547;42.672;23.230;2022-08-19T05:43:37;93311.41;;;22.06;57.97
10988;BME280;5547;42.672;23.230;2022-08-19T05:46:04;93309.63;;;22.23;56.07
10988;BME280;5547;42.672;23.230;2022-08-19T05:48:34;93287.28;;;22.08;54.67
10988;BME280;5547;42.672;23.230;2022-08-19T05:51:09;93313.72;;;22.39;54.94
10988;BME280;5547;42.672;23.230;2022-08-19T05:53:36;93312.53;;;22.46;55.57
10988;BME280;5547;42.672;23.230;2022-08-19T05:56:11;93312.25;;;22.44;54.71
10988;BME280;5547;42.672;23.230;2022-08-19T05:58:37;93321.56;;;22.69;57.12
10988;BME280;5547;42.672;23.230;2022-08-19T06:01:09;93318.53;;;22.61;55.78
10988;BME280;5547;42.672;23.230;2022-08-19T06:03:35;93296.38;;;22.63;53.62
10988;BME280;5547;42.672;23.230;2022-08-19T06:06:03;93266.56;;;22.63;53.38
10988;BME280;5547;42.672;23.230;2022-08-19T06:08:29;93268.47;;;22.51;53.03
10988;BME280;5547;42.672;23.230;2022-08-19T06:10:54;93277.63;;;22.59;55.32
10988;BME280;5547;42.672;23.230;2022-08-19T06:13:21;93318.09;;;23.00;55.05
10988;BME280;5547;42.672;23.230;2022-08-19T06:15:48;93246.44;;;22.38;55.39
10988;BME280;5547;42.672;23.230;2022-08-19T06:18:14;93331.06;;;22.91;54.19
10988;BME280;5547;42.672;23.230;2022-08-19T06:20:41;93294.28;;;22.78;54.59
10988;BME280;5547;42.672;23.230;2022-08-19T06:23:07;93275.09;;;22.88;56.20
10988;BME280;5547;42.672;23.230;2022-08-19T06:25:34;93321.88;;;23.14;55.48
10988;BME280;5547;42.672;23.230;2022-08-19T06:27:59;93296.44;;;23.06;55.60
10988;BME280;5547;42.672;23.230;2022-08-19T06:30:25;93293.75;;;23.12;56.05
10988;BME280;5547;42.672;23.230;2022-08-19T06:32:51;93326.91;;;23.38;53.14
10988;BME280;5547;42.672;23.230;2022-08-19T06:35:16;93317.56;;;23.39;52.92
10988;BME280;5547;42.672;23.230;2022-08-19T06:37:42;93328.50;;;23.62;53.56
10988;BME280;5547;42.672;23.230;2022-08-19T06:40:08;93296.88;;;23.59;53.74
10988;BME280;5547;42.672;23.230;2022-08-19T06:42:37;93288.03;;;23.64;54.60
10988;BME280;5547;42.672;23.230;2022-08-19T06:45:04;93320.00;;;24.03;53.43
10988;BME280;5547;42.672;23.230;2022-08-19T06:47:30;93322.25;;;24.10;54.67
10988;BME280;5547;42.672;23.230;2022-08-19T06:49:58;93325.44;;;24.14;51.83
10988;BME280;5547;42.672;23.230;2022-08-19T06:52:32;93325.69;;;24.16;54.16
10988;BME280;5547;42.672;23.230;2022-08-19T06:54:59;93322.19;;;23.87;53.78
10988;BME280;5547;42.672;23.230;2022-08-19T06:57:24;93330.63;;;24.12;51.96
10988;BME280;5547;42.672;23.230;2022-08-19T06:59:50;93330.66;;;24.29;53.20
10988;BME280;5547;42.672;23.230;2022-08-19T07:02:16;93326.94;;;24.15;51.97
10988;BME280;5547;42.672;23.230;2022-08-19T07:04:41;93332.38;;;24.32;50.89
10988;BME280;5547;42.672;23.230;2022-08-19T07:07:09;93292.38;;;24.27;50.31
10988;BME280;5547;42.672;23.230;2022-08-19T07:09:38;93290.88;;;24.37;51.21
10988;BME280;5547;42.672;23.230;2022-08-19T07:12:06;93339.34;;;24.84;50.64
10988;BME280;5547;42.672;23.230;2022-08-19T07:14:33;93338.84;;;24.74;49.40
10988;BME280;5547;42.672;23.230;2022-08-19T07:17:07;93315.13;;;24.69;49.41
10988;BME280;5547;42.672;23.230;2022-08-19T07:19:33;93337.63;;;24.81;49.18
10988;BME280;5547;42.672;23.230;2022-08-19T07:22:00;93334.88;;;24.92;49.06
10988;BME280;5547;42.672;23.230;2022-08-19T07:24:27;93337.38;;;24.95;48.99
10988;BME280;5547;42.672;23.230;2022-08-19T07:26:56;93341.06;;;24.98;51.11
10988;BME280;5547;42.672;23.230;2022-08-19T07:29:29;93309.41;;;25.01;50.13
10988;BME280;5547;42.672;23.230;2022-08-19T07:31:56;93339.75;;;25.39;51.01
10988;BME280;5547;42.672;23.230;2022-08-19T07:34:24;93340.50;;;25.39;49.59
10988;BME280;5547;42.672;23.230;2022-08-19T07:36:50;93339.72;;;25.50;48.42
10988;BME280;5547;42.672;23.230;2022-08-19T07:39:20;93334.44;;;25.74;47.66
10988;BME280;5547;42.672;23.230;2022-08-19T07:41:46;93336.97;;;25.55;48.50
10988;BME280;5547;42.672;23.230;2022-08-19T07:44:12;93327.22;;;25.88;47.84
10988;BME280;5547;42.672;23.230;2022-08-19T07:46:41;93337.69;;;26.20;47.96
10988;BME280;5547;42.672;23.230;2022-08-19T07:49:07;93333.31;;;26.06;48.45
10988;BME280;5547;42.672;23.230;2022-08-19T07:51:34;93315.84;;;25.78;47.15
10988;BME280;5547;42.672;23.230;2022-08-19T07:53:59;93339.78;;;26.03;46.74
10988;BME280;5547;42.672;23.230;2022-08-19T07:56:25;93334.94;;;26.26;44.58
10988;BME280;5547;42.672;23.230;2022-08-19T07:58:52;93323.16;;;26.06;46.62
10988;BME280;5547;42.672;23.230;2022-08-19T08:01:24;93321.81;;;26.24;45.58
10988;BME280;5547;42.672;23.230;2022-08-19T08:03:52;93338.25;;;26.49;47.77
10988;BME280;5547;42.672;23.230;2022-08-19T08:06:36;93284.84;;;26.29;46.64
10988;BME280;5547;42.672;23.230;2022-08-19T08:09:25;93336.69;;;26.59;45.49
10988;BME280;5547;42.672;23.230;2022-08-19T08:11:52;93335.38;;;27.01;44.55
10988;BME280;5547;42.672;23.230;2022-08-19T08:14:24;93328.31;;;27.12;44.34
10988;BME280;5547;42.672;23.230;2022-08-19T08:16:50;93329.22;;;27.44;42.14
10988;BME280;5547;42.672;23.230;2022-08-19T08:19:18;93326.44;;;27.50;43.95
10988;BME280;5547;42.672;23.230;2022-08-19T08:21:44;93326.22;;;27.48;40.34
10988;BME280;5547;42.672;23.230;2022-08-19T08:24:11;93320.44;;;27.33;41.20
10988;BME280;5547;42.672;23.230;2022-08-19T08:26:37;93326.00;;;27.46;40.13
10988;BME280;5547;42.672;23.230;2022-08-19T08:29:03;93325.66;;;27.31;39.13
10988;BME280;5547;42.672;23.230;2022-08-19T08:31:28;93320.47;;;27.52;40.23
10988;BME280;5547;42.672;23.230;2022-08-19T08:33:54;93321.75;;;27.70;39.76
10988;BME280;5547;42.672;23.230;2022-08-19T08:36:20;93325.06;;;27.62;41.23
10988;BME280;5547;42.672;23.230;2022-08-19T08:38:46;93303.13;;;27.68;42.36
10988;BME280;5547;42.672;23.230;2022-08-19T08:44:06;93321.25;;;28.09;38.73
10988;BME280;5547;42.672;23.230;2022-08-19T08:46:48;93313.00;;;28.15;39.05
10988;BME280;5547;42.672;23.230;2022-08-19T08:52:12;93305.81;;;28.31;35.05
10988;BME280;5547;42.672;23.230;2022-08-19T08:54:47;93312.66;;;28.37;34.77
10988;BME280;5547;42.672;23.230;2022-08-19T08:57:38;93309.91;;;28.37;33.36
10988;BME280;5547;42.672;23.230;2022-08-19T09:00:06;93264.69;;;28.04;35.03
10988;BME280;5547;42.672;23.230;2022-08-19T09:02:33;93286.75;;;28.25;34.30
10988;BME280;5547;42.672;23.230;2022-08-19T09:04:58;93224.09;;;28.08;34.97
10988;BME280;5547;42.672;23.230;2022-08-19T09:07:51;93301.84;;;28.45;35.51
10988;BME280;5547;42.672;23.230;2022-08-19T09:16:12;93294.72;;;28.87;34.64
10988;BME280;5547;42.672;23.230;2022-08-19T09:18:42;93289.91;;;29.07;31.91
10988;BME280;5547;42.672;23.230;2022-08-19T09:21:07;93296.75;;;29.00;30.20
10988;BME280;5547;42.672;23.230;2022-08-19T09:23:35;93284.94;;;28.92;33.49
10988;BME280;5547;42.672;23.230;2022-08-19T09:26:01;93294.50;;;28.85;32.42
10988;BME280;5547;42.672;23.230;2022-08-19T09:28:26;93293.47;;;29.02;31.10
10988;BME280;5547;42.672;23.230;2022-08-19T09:30:52;93291.84;;;29.25;31.19
10988;BME280;5547;42.672;23.230;2022-08-19T09:33:18;93226.91;;;28.80;32.55
10988;BME280;5547;42.672;23.230;2022-08-19T09:35:44;93286.38;;;29.25;30.51
10988;BME280;5547;42.672;23.230;2022-08-19T09:38:10;93282.13;;;29.51;31.34
10988;BME280;5547;42.672;23.230;2022-08-19T09:40:35;93238.53;;;29.26;30.25
10988;BME280;5547;42.672;23.230;2022-08-19T09:43:01;93283.38;;;29.63;30.09
10988;BME280;5547;42.672;23.230;2022-08-19T09:45:28;93280.22;;;29.46;29.52
10988;BME280;5547;42.672;23.230;2022-08-19T09:47:54;93256.63;;;29.03;33.95
10988;BME280;5547;42.672;23.230;2022-08-19T09:50:20;93276.88;;;29.40;29.98
10988;BME280;5547;42.672;23.230;2022-08-19T09:52:46;93248.53;;;29.37;30.42
10988;BME280;5547;42.672;23.230;2022-08-19T09:55:11;93280.00;;;29.57;30.37
10988;BME280;5547;42.672;23.230;2022-08-19T09:57:38;93250.53;;;29.23;31.44
10988;BME280;5547;42.672;23.230;2022-08-19T10:00:05;93270.19;;;29.48;32.93
10988;BME280;5547;42.672;23.230;2022-08-19T10:02:32;93268.75;;;29.74;30.63
10988;BME280;5547;42.672;23.230;2022-08-19T10:04:57;93254.44;;;29.28;32.78
10988;BME280;5547;42.672;23.230;2022-08-19T10:07:41;93232.81;;;29.38;28.68
10988;BME280;5547;42.672;23.230;2022-08-19T10:10:07;93260.06;;;29.83;26.13
10988;BME280;5547;42.672;23.230;2022-08-19T10:12:34;93255.13;;;29.68;28.20
10988;BME280;5547;42.672;23.230;2022-08-19T10:15:01;93109.22;;;28.54;27.80
10988;BME280;5547;42.672;23.230;2022-08-19T10:17:27;93113.75;;;28.64;33.10
10988;BME280;5547;42.672;23.230;2022-08-19T10:19:53;93237.97;;;29.68;28.62
10988;BME280;5547;42.672;23.230;2022-08-19T10:22:19;93257.97;;;30.10;27.85
10988;BME280;5547;42.672;23.230;2022-08-19T10:24:47;93195.88;;;29.65;28.81
10988;BME280;5547;42.672;23.230;2022-08-19T10:27:13;93232.31;;;29.87;27.48
10988;BME280;5547;42.672;23.230;2022-08-19T10:29:39;93241.03;;;30.20;27.43
10988;BME280;5547;42.672;23.230;2022-08-19T10:32:07;93235.50;;;29.78;28.53
10988;BME280;5547;42.672;23.230;2022-08-19T10:34:34;93237.78;;;30.21;28.17
10988;BME280;5547;42.672;23.230;2022-08-19T10:37:00;93211.47;;;29.84;28.81
10988;BME280;5547;42.672;23.230;2022-08-19T10:39:26;93240.28;;;29.98;31.25
10988;BME280;5547;42.672;23.230;2022-08-19T10:41:54;93222.75;;;30.01;30.08
10988;BME280;5547;42.672;23.230;2022-08-19T10:44:21;93237.41;;;30.38;28.06
10988;BME280;5547;42.672;23.230;2022-08-19T10:46:48;93215.41;;;30.17;30.33
10988;BME280;5547;42.672;23.230;2022-08-19T10:49:14;93230.47;;;30.24;30.02
10988;BME280;5547;42.672;23.230;2022-08-19T10:51:40;93204.69;;;30.40;26.42
10988;BME280;5547;42.672;23.230;2022-08-19T10:54:24;93235.47;;;30.46;29.27
10988;BME280;5547;42.672;23.230;2022-08-19T10:57:10;93231.53;;;30.34;28.82
10988;BME280;5547;42.672;23.230;2022-08-19T10:59:35;93233.97;;;30.45;28.11
10988;BME280;5547;42.672;23.230;2022-08-19T11:02:02;93232.50;;;30.86;28.13
10988;BME280;5547;42.672;23.230;2022-08-19T11:04:28;93232.41;;;30.99;29.60
10988;BME280;5547;42.672;23.230;2022-08-19T11:06:55;93222.25;;;30.87;27.09
10988;BME280;5547;42.672;23.230;2022-08-19T11:09:22;93196.09;;;30.65;29.29
10988;BME280;5547;42.672;23.230;2022-08-19T11:11:52;93156.78;;;30.41;31.66
10988;BME280;5547;42.672;23.230;2022-08-19T11:14:18;93220.53;;;31.05;27.28
10988;BME280;5547;42.672;23.230;2022-08-19T11:16:45;93217.88;;;30.91;27.10
10988;BME280;5547;42.672;23.230;2022-08-19T11:19:11;93211.66;;;30.70;28.28
10988;BME280;5547;42.672;23.230;2022-08-19T11:21:42;93210.97;;;30.48;27.21
10988;BME280;5547;42.672;23.230;2022-08-19T11:24:10;93198.69;;;30.70;27.41
10988;BME280;5547;42.672;23.230;2022-08-19T11:26:37;93213.63;;;30.62;28.97
10988;BME280;5547;42.672;23.230;2022-08-19T11:29:04;93217.56;;;30.74;28.28
10988;BME280;5547;42.672;23.230;2022-08-19T11:31:33;93095.38;;;30.02;27.97
10988;BME280;5547;42.672;23.230;2022-08-19T11:34:02;93205.22;;;30.88;26.83
10988;BME280;5547;42.672;23.230;2022-08-19T11:36:29;93192.13;;;30.73;26.56
10988;BME280;5547;42.672;23.230;2022-08-19T11:38:54;93190.31;;;30.76;26.50
10988;BME280;5547;42.672;23.230;2022-08-19T11:41:21;93176.97;;;30.51;28.61
10988;BME280;5547;42.672;23.230;2022-08-19T11:43:49;93193.19;;;30.70;27.57
10988;BME280;5547;42.672;23.230;2022-08-19T11:46:16;93198.44;;;30.89;29.27
10988;BME280;5547;42.672;23.230;2022-08-19T11:48:43;93193.66;;;31.11;29.03
10988;BME280;5547;42.672;23.230;2022-08-19T11:51:15;93170.25;;;30.89;29.58
10988;BME280;5547;42.672;23.230;2022-08-19T11:53:40;93192.84;;;31.03;27.76
10988;BME280;5547;42.672;23.230;2022-08-19T11:56:08;93186.56;;;31.31;30.07
10988;BME280;5547;42.672;23.230;2022-08-19T11:58:34;93192.28;;;30.75;32.18
10988;BME280;5547;42.672;23.230;2022-08-19T12:01:00;93157.66;;;30.65;30.77
10988;BME280;5547;42.672;23.230;2022-08-19T12:03:25;93181.47;;;31.35;30.58
10988;BME280;5547;42.672;23.230;2022-08-19T12:05:51;93144.97;;;31.19;29.57
10988;BME280;5547;42.672;23.230;2022-08-19T12:08:17;93123.25;;;30.92;28.10
10988;BME280;5547;42.672;23.230;2022-08-19T12:10:44;93142.00;;;31.09;29.05
10988;BME280;5547;42.672;23.230;2022-08-19T12:13:11;93153.09;;;31.40;29.07
10988;BME280;5547;42.672;23.230;2022-08-19T12:15:39;93172.06;;;31.59;29.18
10988;BME280;5547;42.672;23.230;2022-08-19T12:18:06;93155.91;;;31.48;28.50
10988;BME280;5547;42.672;23.230;2022-08-19T12:20:35;93141.31;;;31.68;29.38
10988;BME280;5547;42.672;23.230;2022-08-19T12:23:01;93149.41;;;31.89;29.86
10988;BME280;5547;42.672;23.230;2022-08-19T12:25:26;93146.50;;;32.02;28.84
10988;BME280;5547;42.672;23.230;2022-08-19T12:27:52;93127.22;;;31.95;29.35
10988;BME280;5547;42.672;23.230;2022-08-19T12:30:17;93116.38;;;31.74;30.12
10988;BME280;5547;42.672;23.230;2022-08-19T12:32:43;93149.44;;;32.05;30.43
10988;BME280;5547;42.672;23.230;2022-08-19T12:35:08;93081.91;;;31.50;28.09
10988;BME280;5547;42.672;23.230;2022-08-19T12:37:37;93143.56;;;32.16;28.84
10988;BME280;5547;42.672;23.230;2022-08-19T12:40:03;93140.28;;;32.17;26.90
10988;BME280;5547;42.672;23.230;2022-08-19T12:42:29;93144.13;;;32.22;26.46
10988;BME280;5547;42.672;23.230;2022-08-19T12:44:55;93140.09;;;32.31;28.64
10988;BME280;5547;42.672;23.230;2022-08-19T12:47:21;93134.22;;;32.03;29.74
10988;BME280;5547;42.672;23.230;2022-08-19T12:49:46;93133.69;;;32.13;30.59
10988;BME280;5547;42.672;23.230;2022-08-19T12:52:13;93133.31;;;32.01;27.81
10988;BME280;5547;42.672;23.230;2022-08-19T12:54:41;93121.56;;;32.08;28.13
10988;BME280;5547;42.672;23.230;2022-08-19T12:57:10;93121.94;;;32.35;26.50
10988;BME280;5547;42.672;23.230;2022-08-19T12:59:36;93096.44;;;32.19;29.28
10988;BME280;5547;42.672;23.230;2022-08-19T13:02:03;93118.63;;;32.29;26.21
10988;BME280;5547;42.672;23.230;2022-08-19T13:04:30;93128.34;;;32.22;26.85
10988;BME280;5547;42.672;23.230;2022-08-19T13:06:55;93055.16;;;31.81;28.24
10988;BME280;5547;42.672;23.230;2022-08-19T13:09:21;93096.09;;;32.08;29.20
10988;BME280;5547;42.672;23.230;2022-08-19T13:11:47;93086.88;;;31.90;28.41
10988;BME280;5547;42.672;23.230;2022-08-19T13:14:12;93104.66;;;31.89;28.58
10988;BME280;5547;42.672;23.230;2022-08-19T13:16:38;93069.81;;;31.53;29.95